createdAt,value
2023-01-03T00:00:00.242Z,9.1
2023-01-03T00:01:05.743Z,9.1
2023-01-03T00:02:00.324Z,9.1
2023-01-03T00:03:00.223Z,9.1
2023-01-03T00:04:00.302Z,9.1
2023-01-03T00:05:00.359Z,9.1
2023-01-03T00:06:00.200Z,9.1
2023-01-03T00:07:00.201Z,9.1
2023-01-03T00:08:00.325Z,9.1
2023-01-03T00:09:04.171Z,9.1
2023-01-03T00:10:05.549Z,9.1
2023-01-03T00:11:00.204Z,9.1
2023-01-03T00:12:00.240Z,9.1
2023-01-03T00:13:00.213Z,9.1
2023-01-03T00:14:00.214Z,9.2
2023-01-03T00:15:00.629Z,9.2
2023-01-03T00:16:00.243Z,9.2
2023-01-03T00:17:02.073Z,9.2
2023-01-03T00:18:00.261Z,9.2
2023-01-03T00:19:06.647Z,9.9
2023-01-03T00:20:00.294Z,9.9
2023-01-03T00:21:03.185Z,9.9
2023-01-03T00:22:00.707Z,9.9
2023-01-03T00:23:00.233Z,9.9
2023-01-03T00:24:00.471Z,9.4
2023-01-03T00:25:00.234Z,9.4
2023-01-03T00:26:08.508Z,9.4
2023-01-03T00:27:00.832Z,9.4
2023-01-03T00:28:00.351Z,9.4
2023-01-03T00:29:00.298Z,8.6
2023-01-03T00:30:00.353Z,8.6
2023-01-03T00:31:05.715Z,8.6
2023-01-03T00:32:00.326Z,8.6
2023-01-03T00:33:00.232Z,8.6
2023-01-03T00:34:00.232Z,8.3
2023-01-03T00:35:05.076Z,8.3
2023-01-03T00:36:02.390Z,8.3
2023-01-03T00:37:00.614Z,8.3
2023-01-03T00:38:00.264Z,8.3
2023-01-03T00:39:00.265Z,7.6
2023-01-03T00:40:00.325Z,7.6
2023-01-03T00:41:09.055Z,7.6
2023-01-03T00:42:00.730Z,7.6
2023-01-03T00:43:00.224Z,7.6
2023-01-03T00:44:00.452Z,6.7
2023-01-03T00:45:00.226Z,6.7
2023-01-03T00:46:01.021Z,6.7
2023-01-03T00:47:00.432Z,6.7
2023-01-03T00:48:00.260Z,6.7
2023-01-03T00:49:00.951Z,6.9
2023-01-03T00:50:00.367Z,6.9
2023-01-03T00:51:05.666Z,6.9
2023-01-03T00:52:00.242Z,6.9
2023-01-03T00:53:00.229Z,6.9
2023-01-03T00:54:02.231Z,6.8
2023-01-03T00:55:00.221Z,6.8
2023-01-03T00:56:11.106Z,6.8
2023-01-03T00:57:00.286Z,6.8
2023-01-03T00:58:00.403Z,6.8
2023-01-03T00:59:00.319Z,6.8
2023-01-03T01:00:00.245Z,6.8
2023-01-03T01:01:04.630Z,6.8
2023-01-03T01:02:00.354Z,6.8
2023-01-03T01:03:00.407Z,6.8
2023-01-03T01:04:06.793Z,7.2
2023-01-03T01:05:00.232Z,7.2
2023-01-03T01:06:09.525Z,7.2
2023-01-03T01:07:02.638Z,7.2
2023-01-03T01:08:00.283Z,7.2
2023-01-03T01:09:02.535Z,6.9
2023-01-03T01:10:00.222Z,6.9
2023-01-03T01:11:00.202Z,6.9
2023-01-03T01:12:00.251Z,6.9
2023-01-03T01:13:00.217Z,6.9
2023-01-03T01:14:00.735Z,7.1
2023-01-03T01:15:00.225Z,7.1
2023-01-03T01:16:01.734Z,7.1
2023-01-03T01:17:04.928Z,7.1
2023-01-03T01:18:00.239Z,7.1
2023-01-03T01:19:00.275Z,7.2
2023-01-03T01:20:00.210Z,7.2
2023-01-03T01:21:03.945Z,7.2
2023-01-03T01:22:00.607Z,7.2
2023-01-03T01:23:00.244Z,7.2
2023-01-03T01:24:00.242Z,6.8
2023-01-03T01:25:00.465Z,6.8
2023-01-03T01:26:01.234Z,6.8
2023-01-03T01:27:00.576Z,6.8
2023-01-03T01:28:00.242Z,6.8
2023-01-03T01:29:00.246Z,6.3
2023-01-03T01:30:00.233Z,6.3
2023-01-03T01:31:01.451Z,6.3
2023-01-03T01:32:00.336Z,6.3
2023-01-03T01:33:00.255Z,6.3
2023-01-03T01:34:00.226Z,6.4
2023-01-03T01:35:00.224Z,6.4
2023-01-03T01:36:09.514Z,6.4
2023-01-03T01:37:00.309Z,6.4
2023-01-03T01:38:00.239Z,6.4
2023-01-03T01:39:03.089Z,6.6
2023-01-03T01:40:00.210Z,6.6
2023-01-03T01:41:00.276Z,6.6
2023-01-03T01:42:03.240Z,6.6
2023-01-03T01:43:14.664Z,6.6
2023-01-03T01:44:00.216Z,6.8
2023-01-03T01:45:02.272Z,6.8
2023-01-03T01:46:05.620Z,6.8
2023-01-03T01:47:01.438Z,6.8
2023-01-03T01:48:09.420Z,6.8
2023-01-03T01:49:05.182Z,6.7
2023-01-03T01:50:03.444Z,6.7
2023-01-03T01:51:01.431Z,6.7
2023-01-03T01:52:00.252Z,6.7
2023-01-03T01:53:02.077Z,6.7
2023-01-03T01:54:03.254Z,6.9
2023-01-03T01:55:03.205Z,6.9
2023-01-03T01:56:12.319Z,6.9
2023-01-03T01:57:00.227Z,6.9
2023-01-03T01:58:00.971Z,6.9
2023-01-03T01:59:00.545Z,6.9
2023-01-03T02:00:00.453Z,6.9
2023-01-03T02:01:02.465Z,6.9
2023-01-03T02:02:00.425Z,6.9
2023-01-03T02:03:00.713Z,6.9
2023-01-03T02:04:08.579Z,6.7
2023-01-03T02:05:03.252Z,6.7
2023-01-03T02:06:01.966Z,6.7
2023-01-03T02:07:01.133Z,6.7
2023-01-03T02:08:00.627Z,6.7
2023-01-03T02:09:00.712Z,6.7
2023-01-03T02:10:00.676Z,6.7
2023-01-03T02:11:13.709Z,6.7
2023-01-03T02:12:20.131Z,6.7
2023-01-03T02:13:08.390Z,6.7
2023-01-03T02:14:07.568Z,6.9
2023-01-03T02:15:20.148Z,6.9
2023-01-03T02:16:18.923Z,6.9
2023-01-03T02:17:14.244Z,6.9
2023-01-03T02:18:09.057Z,6.9
2023-01-03T02:19:20.120Z,7.1
2023-01-03T02:20:17.773Z,7.1
2023-01-03T02:21:14.562Z,7.1
2023-01-03T02:22:20.131Z,7.1
2023-01-03T02:23:20.131Z,7.1
2023-01-03T02:24:20.124Z,7.0
2023-01-03T02:25:17.497Z,7.0
2023-01-03T02:26:01.195Z,7.0
2023-01-03T02:27:13.699Z,7.0
2023-01-03T02:28:11.251Z,7.0
2023-01-03T02:29:20.144Z,7.7
2023-01-03T02:30:16.226Z,7.7
2023-01-03T02:31:12.656Z,7.7
2023-01-03T02:32:08.428Z,7.7
2023-01-03T02:33:20.158Z,7.7
2023-01-03T02:34:20.115Z,7.0
2023-01-03T02:35:11.690Z,7.0
2023-01-03T02:36:11.920Z,7.0
2023-01-03T02:37:10.278Z,7.0
2023-01-03T02:38:10.990Z,7.0
2023-01-03T02:39:08.638Z,7.4
2023-01-03T02:40:09.399Z,7.4
2023-01-03T02:41:19.282Z,7.4
2023-01-03T02:42:10.179Z,7.4
2023-01-03T02:43:13.458Z,7.4
2023-01-03T02:44:13.537Z,6.7
2023-01-03T02:45:09.930Z,6.7
2023-01-03T02:46:11.906Z,6.7
2023-01-03T02:47:06.317Z,6.7
2023-01-03T02:48:04.997Z,6.7
2023-01-03T02:49:07.442Z,7.1
2023-01-03T02:50:03.211Z,7.1
2023-01-03T02:51:06.419Z,7.1
2023-01-03T02:52:04.223Z,7.1
2023-01-03T02:53:04.061Z,7.1
2023-01-03T02:54:03.022Z,6.8
2023-01-03T02:55:06.537Z,6.8
2023-01-03T02:56:06.317Z,6.8
2023-01-03T02:57:05.216Z,6.8
2023-01-03T02:58:06.577Z,6.8
2023-01-03T02:59:06.140Z,6.7
2023-01-03T03:00:06.782Z,6.7
2023-01-03T03:01:02.759Z,6.7
2023-01-03T03:02:02.016Z,6.7
2023-01-03T03:03:05.577Z,6.7
2023-01-03T03:04:01.882Z,6.2
2023-01-03T03:05:04.297Z,6.2
2023-01-03T03:06:06.900Z,6.2
2023-01-03T03:07:07.147Z,6.2
2023-01-03T03:08:00.278Z,6.2
2023-01-03T03:09:00.233Z,6.1
2023-01-03T03:10:00.218Z,6.1
2023-01-03T03:11:00.306Z,6.1
2023-01-03T03:12:00.773Z,6.1
2023-01-03T03:13:04.932Z,6.1
2023-01-03T03:14:14.267Z,5.5
2023-01-03T03:15:04.333Z,5.5
2023-01-03T03:16:06.346Z,5.5
2023-01-03T03:17:05.068Z,5.5
2023-01-03T03:18:08.033Z,5.5
2023-01-03T03:19:02.011Z,5.4
2023-01-03T03:20:06.016Z,5.4
2023-01-03T03:21:03.308Z,5.4
2023-01-03T03:22:03.810Z,5.4
2023-01-03T03:23:05.505Z,5.4
2023-01-03T03:24:07.149Z,5.2
2023-01-03T03:25:06.495Z,5.2
2023-01-03T03:26:10.485Z,5.2
2023-01-03T03:27:05.076Z,5.2
2023-01-03T03:28:05.206Z,5.2
2023-01-03T03:29:05.615Z,5.1
2023-01-03T03:30:04.074Z,5.1
2023-01-03T03:31:06.946Z,5.1
2023-01-03T03:32:00.871Z,5.1
2023-01-03T03:33:01.510Z,5.1
2023-01-03T03:34:08.281Z,5.2
2023-01-03T03:35:03.438Z,5.2
2023-01-03T03:36:07.149Z,5.2
2023-01-03T03:37:13.475Z,5.2
2023-01-03T03:38:04.222Z,5.2
2023-01-03T03:39:00.776Z,5.6
2023-01-03T03:40:00.354Z,5.6
2023-01-03T03:41:13.469Z,5.6
2023-01-03T03:42:11.201Z,5.6
2023-01-03T03:43:10.357Z,5.6
2023-01-03T03:44:16.009Z,4.8
2023-01-03T03:45:09.873Z,4.8
2023-01-03T03:46:09.326Z,4.8
2023-01-03T03:47:08.576Z,4.8
2023-01-03T03:48:08.229Z,4.8
2023-01-03T03:49:07.447Z,5.1
2023-01-03T03:50:16.944Z,5.1
2023-01-03T03:51:08.088Z,5.1
2023-01-03T03:52:02.960Z,5.1
2023-01-03T03:53:04.583Z,5.1
2023-01-03T03:54:06.816Z,4.5
2023-01-03T03:55:08.075Z,4.5
2023-01-03T03:56:15.449Z,4.5
2023-01-03T03:57:08.015Z,4.5
2023-01-03T03:58:05.030Z,4.5
2023-01-03T03:59:04.345Z,4.8
2023-01-03T04:00:04.823Z,4.8
2023-01-03T04:01:02.143Z,4.8
2023-01-03T04:02:04.066Z,4.8
2023-01-03T04:03:02.720Z,4.8
2023-01-03T04:04:08.503Z,4.7
2023-01-03T04:05:04.508Z,4.7
2023-01-03T04:06:05.278Z,4.7
2023-01-03T04:07:00.541Z,4.7
2023-01-03T04:08:00.568Z,4.7
2023-01-03T04:09:00.685Z,4.8
2023-01-03T04:10:00.543Z,4.8
2023-01-03T04:11:00.279Z,4.8
2023-01-03T04:12:00.277Z,4.8
2023-01-03T04:13:00.259Z,4.8
2023-01-03T04:14:00.277Z,4.8
2023-01-03T04:15:00.218Z,4.8
2023-01-03T04:16:00.589Z,4.8
2023-01-03T04:17:00.396Z,4.8
2023-01-03T04:18:00.536Z,4.8
2023-01-03T04:19:00.203Z,4.8
2023-01-03T04:20:00.352Z,4.8
2023-01-03T04:21:00.254Z,4.8
2023-01-03T04:22:00.243Z,4.8
2023-01-03T04:23:00.239Z,4.8
2023-01-03T04:24:00.220Z,4.8
2023-01-03T04:25:00.242Z,4.8
2023-01-03T04:26:00.333Z,4.8
2023-01-03T04:27:00.222Z,4.8
2023-01-03T04:28:00.292Z,4.8
2023-01-03T04:29:00.221Z,4.8
2023-01-03T04:30:00.330Z,4.8
2023-01-03T04:31:00.391Z,4.8
2023-01-03T04:32:00.283Z,4.8
2023-01-03T04:33:00.217Z,4.8
2023-01-03T04:34:00.253Z,5.2
2023-01-03T04:35:00.228Z,5.2
2023-01-03T04:36:00.243Z,5.2
2023-01-03T04:37:00.283Z,5.2
2023-01-03T04:38:00.243Z,5.2
2023-01-03T04:39:00.247Z,4.9
2023-01-03T04:40:00.227Z,4.9
2023-01-03T04:41:07.901Z,4.9
2023-01-03T04:42:00.259Z,4.9
2023-01-03T04:43:00.369Z,4.9
2023-01-03T04:44:00.223Z,5.4
2023-01-03T04:45:00.231Z,5.4
2023-01-03T04:46:00.290Z,5.4
2023-01-03T04:47:00.235Z,5.4
2023-01-03T04:48:00.749Z,5.4
2023-01-03T04:49:02.137Z,5.5
2023-01-03T04:50:00.245Z,5.5
2023-01-03T04:51:00.288Z,5.5
2023-01-03T04:52:00.213Z,5.5
2023-01-03T04:53:00.238Z,5.5
2023-01-03T04:54:01.243Z,5.3
2023-01-03T04:55:00.230Z,5.3
2023-01-03T04:56:00.256Z,5.3
2023-01-03T04:57:00.223Z,5.3
2023-01-03T04:58:00.231Z,5.3
2023-01-03T04:59:00.478Z,5.7
2023-01-03T05:00:00.248Z,5.7
2023-01-03T05:01:02.411Z,5.7
2023-01-03T05:02:00.502Z,5.7
2023-01-03T05:03:00.199Z,5.7
2023-01-03T05:04:01.069Z,5.9
2023-01-03T05:05:00.245Z,5.9
2023-01-03T05:06:02.250Z,5.9
2023-01-03T05:07:00.211Z,5.9
2023-01-03T05:08:02.668Z,5.9
2023-01-03T05:09:00.205Z,5.7
2023-01-03T05:10:00.229Z,5.7
2023-01-03T05:11:00.948Z,5.7
2023-01-03T05:12:00.340Z,5.7
2023-01-03T05:13:00.233Z,5.7
2023-01-03T05:14:00.208Z,5.7
2023-01-03T05:15:00.325Z,5.7
2023-01-03T05:16:11.442Z,5.7
2023-01-03T05:17:00.305Z,5.7
2023-01-03T05:18:00.431Z,5.7
2023-01-03T05:19:00.233Z,5.5
2023-01-03T05:20:00.239Z,5.5
2023-01-03T05:21:04.764Z,5.5
2023-01-03T05:22:00.236Z,5.5
2023-01-03T05:23:00.196Z,5.5
2023-01-03T05:24:00.319Z,5.3
2023-01-03T05:25:00.217Z,5.3
2023-01-03T05:26:05.044Z,5.3
2023-01-03T05:27:03.333Z,5.3
2023-01-03T05:28:01.142Z,5.3
2023-01-03T05:29:00.241Z,5.3
2023-01-03T05:30:00.469Z,5.3
2023-01-03T05:31:00.416Z,5.3
2023-01-03T05:32:00.341Z,5.3
2023-01-03T05:33:00.238Z,5.3
2023-01-03T05:34:00.269Z,5.1
2023-01-03T05:35:00.232Z,5.1
2023-01-03T05:36:00.268Z,5.1
2023-01-03T05:37:00.262Z,5.1
2023-01-03T05:38:00.265Z,5.1
2023-01-03T05:39:00.226Z,5.0
2023-01-03T05:40:00.226Z,5.0
2023-01-03T05:41:00.281Z,5.0
2023-01-03T05:42:00.316Z,5.0
2023-01-03T05:43:00.251Z,5.0
2023-01-03T05:44:00.214Z,5.9
2023-01-03T05:45:00.301Z,5.9
2023-01-03T05:46:00.382Z,5.9
2023-01-03T05:47:02.082Z,5.9
2023-01-03T05:48:00.238Z,5.9
2023-01-03T05:49:00.233Z,5.2
2023-01-03T05:50:00.266Z,5.2
2023-01-03T05:51:00.263Z,5.2
2023-01-03T05:52:00.304Z,5.2
2023-01-03T05:53:00.321Z,5.2
2023-01-03T05:54:00.245Z,5.2
2023-01-03T05:55:00.305Z,5.2
2023-01-03T05:56:04.421Z,5.2
2023-01-03T05:57:00.455Z,5.2
2023-01-03T05:58:00.274Z,5.2
2023-01-03T05:59:00.331Z,5.2
2023-01-03T06:00:00.367Z,5.2
2023-01-03T06:01:07.629Z,5.2
2023-01-03T06:02:00.397Z,5.2
2023-01-03T06:03:00.339Z,5.2
2023-01-03T06:04:00.293Z,5.1
2023-01-03T06:05:00.392Z,5.1
2023-01-03T06:06:01.923Z,5.1
2023-01-03T06:07:00.228Z,5.1
2023-01-03T06:08:00.857Z,5.1
2023-01-03T06:09:00.274Z,5.8
2023-01-03T06:10:00.231Z,5.8
2023-01-03T06:11:05.983Z,5.8
2023-01-03T06:12:00.226Z,5.8
2023-01-03T06:13:00.223Z,5.8
2023-01-03T06:14:00.334Z,5.8
2023-01-03T06:15:00.232Z,5.8
2023-01-03T06:16:02.564Z,5.8
2023-01-03T06:17:00.358Z,5.8
2023-01-03T06:18:00.245Z,5.8
2023-01-03T06:19:02.036Z,5.3
2023-01-03T06:20:00.250Z,5.3
2023-01-03T06:21:02.499Z,5.3
2023-01-03T06:22:01.761Z,5.3
2023-01-03T06:23:00.229Z,5.3
2023-01-03T06:24:00.320Z,5.6
2023-01-03T06:25:00.295Z,5.6
2023-01-03T06:26:01.923Z,5.6
2023-01-03T06:27:00.213Z,5.6
2023-01-03T06:28:00.221Z,5.6
2023-01-03T06:29:00.537Z,5.9
2023-01-03T06:30:00.251Z,5.9
2023-01-03T06:31:00.256Z,5.9
2023-01-03T06:32:06.881Z,5.9
2023-01-03T06:33:00.240Z,5.9
2023-01-03T06:34:00.261Z,6.3
2023-01-03T06:35:00.321Z,6.3
2023-01-03T06:36:03.438Z,6.3
2023-01-03T06:37:00.193Z,6.3
2023-01-03T06:38:00.187Z,6.3
2023-01-03T06:39:00.414Z,5.9
2023-01-03T06:40:00.224Z,5.9
2023-01-03T06:41:00.723Z,5.9
2023-01-03T06:42:00.171Z,5.9
2023-01-03T06:43:00.179Z,5.9
2023-01-03T06:44:00.217Z,5.8
2023-01-03T06:45:00.195Z,5.8
2023-01-03T06:46:00.804Z,5.8
2023-01-03T06:47:02.224Z,5.8
2023-01-03T06:48:04.711Z,5.8
2023-01-03T06:49:00.160Z,5.7
2023-01-03T06:50:00.216Z,5.7
2023-01-03T06:51:00.202Z,5.7
2023-01-03T06:52:01.445Z,5.7
2023-01-03T06:53:00.186Z,5.7
2023-01-03T06:54:02.365Z,7.9
2023-01-03T06:55:00.443Z,7.9
2023-01-03T06:56:00.242Z,7.9
2023-01-03T06:57:00.543Z,7.9
2023-01-03T06:58:00.132Z,7.9
2023-01-03T06:59:00.481Z,7.3
2023-01-03T07:00:00.251Z,7.3
2023-01-03T07:01:02.714Z,7.3
2023-01-03T07:02:00.310Z,7.3
2023-01-03T07:03:03.208Z,7.3
2023-01-03T07:04:01.383Z,7.2
2023-01-03T07:05:00.271Z,7.2
2023-01-03T07:06:00.187Z,7.2
2023-01-03T07:07:00.142Z,7.2
2023-01-03T07:08:00.171Z,7.2
2023-01-03T07:09:00.180Z,6.4
2023-01-03T07:10:00.217Z,6.4
2023-01-03T07:11:00.161Z,6.4
2023-01-03T07:12:00.158Z,6.4
2023-01-03T07:13:00.228Z,6.4
2023-01-03T07:14:01.026Z,7.8
2023-01-03T07:15:00.177Z,7.8
2023-01-03T07:16:00.381Z,7.8
2023-01-03T07:17:00.205Z,7.8
2023-01-03T07:18:00.304Z,7.8
2023-01-03T07:19:00.905Z,7.8
2023-01-03T07:20:00.239Z,7.8
2023-01-03T07:21:00.190Z,7.8
2023-01-03T07:22:00.252Z,7.8
2023-01-03T07:23:00.279Z,7.8
2023-01-03T07:24:02.023Z,7.8
2023-01-03T07:25:00.226Z,7.8
2023-01-03T07:26:00.219Z,7.8
2023-01-03T07:27:00.222Z,7.8
2023-01-03T07:28:05.728Z,7.8
2023-01-03T07:29:04.797Z,7.8
2023-01-03T07:30:00.272Z,7.8
2023-01-03T07:31:02.423Z,7.8
2023-01-03T07:32:00.215Z,7.8
2023-01-03T07:33:00.223Z,7.8
2023-01-03T07:34:00.474Z,8.1
2023-01-03T07:35:00.241Z,8.1
2023-01-03T07:36:07.634Z,8.1
2023-01-03T07:37:00.225Z,8.1
2023-01-03T07:38:01.336Z,8.1
2023-01-03T07:39:00.238Z,8.0
2023-01-03T07:40:00.295Z,8.0
2023-01-03T07:41:01.423Z,8.0
2023-01-03T07:42:00.217Z,8.0
2023-01-03T07:43:00.445Z,8.0
2023-01-03T07:44:00.230Z,7.8
2023-01-03T07:45:00.253Z,7.8
2023-01-03T07:46:03.570Z,7.8
2023-01-03T07:47:00.214Z,7.8
2023-01-03T07:48:00.227Z,7.8
2023-01-03T07:49:00.252Z,8.4
2023-01-03T07:50:00.265Z,8.4
2023-01-03T07:51:00.555Z,8.4
2023-01-03T07:52:03.455Z,8.4
2023-01-03T07:53:00.264Z,8.4
2023-01-03T07:54:00.237Z,9.1
2023-01-03T07:55:00.249Z,9.1
2023-01-03T07:56:09.133Z,9.1
2023-01-03T07:57:00.237Z,9.1
2023-01-03T07:58:00.271Z,9.1
2023-01-03T07:59:00.273Z,8.5
2023-01-03T08:00:00.323Z,8.5
2023-01-03T08:01:06.050Z,8.5
2023-01-03T08:02:00.330Z,8.5
2023-01-03T08:03:00.297Z,8.5
2023-01-03T08:04:00.265Z,8.6
2023-01-03T08:05:00.300Z,8.6
2023-01-03T08:06:02.268Z,8.6
2023-01-03T08:07:00.215Z,8.6
2023-01-03T08:08:02.273Z,8.6
2023-01-03T08:09:05.941Z,7.7
2023-01-03T08:10:00.262Z,7.7
2023-01-03T08:11:00.569Z,7.7
2023-01-03T08:12:00.225Z,7.7
2023-01-03T08:13:00.326Z,7.7
2023-01-03T08:14:00.260Z,7.7
2023-01-03T08:15:00.212Z,7.7
2023-01-03T08:16:00.394Z,7.7
2023-01-03T08:17:00.219Z,7.7
2023-01-03T08:18:00.220Z,7.7
2023-01-03T08:19:00.215Z,9.4
2023-01-03T08:20:00.216Z,9.4
2023-01-03T08:21:00.205Z,9.4
2023-01-03T08:22:00.323Z,9.4
2023-01-03T08:23:00.206Z,9.4
2023-01-03T08:24:00.203Z,7.7
2023-01-03T08:25:00.347Z,7.7
2023-01-03T08:26:04.673Z,7.7
2023-01-03T08:27:00.179Z,7.7
2023-01-03T08:28:00.658Z,7.7
2023-01-03T08:29:00.219Z,8.1
2023-01-03T08:30:00.278Z,8.1
2023-01-03T08:31:07.011Z,8.1
2023-01-03T08:32:00.693Z,8.1
2023-01-03T08:33:01.839Z,8.1
2023-01-03T08:34:02.485Z,7.8
2023-01-03T08:35:00.501Z,7.8
2023-01-03T08:36:02.848Z,7.8
2023-01-03T08:37:03.394Z,7.8
2023-01-03T08:38:03.503Z,8.3
2023-01-03T08:39:07.791Z,8.3
2023-01-03T08:40:04.028Z,8.3
2023-01-03T08:41:01.596Z,8.3
2023-01-03T08:42:03.798Z,8.3
2023-01-03T08:43:02.413Z,10.4
2023-01-03T08:44:02.260Z,10.4
2023-01-03T08:45:05.347Z,10.4
2023-01-03T08:46:04.726Z,10.4
2023-01-03T08:47:03.132Z,10.4
2023-01-03T08:48:00.692Z,7.6
2023-01-03T08:49:00.269Z,7.6
2023-01-03T08:50:00.845Z,7.6
2023-01-03T08:51:00.944Z,7.6
2023-01-03T08:52:00.174Z,7.6
2023-01-03T08:53:00.332Z,8.2
2023-01-03T08:54:00.228Z,8.2
2023-01-03T08:55:00.206Z,8.2
2023-01-03T08:56:00.237Z,8.2
2023-01-03T08:57:00.258Z,8.2
2023-01-03T08:58:00.229Z,8.9
2023-01-03T08:59:00.703Z,8.9
2023-01-03T09:00:00.242Z,8.9
2023-01-03T09:01:02.295Z,8.9
2023-01-03T09:02:00.572Z,8.9
2023-01-03T09:03:00.495Z,8.4
2023-01-03T09:04:00.372Z,8.4
2023-01-03T09:05:00.258Z,8.4
2023-01-03T09:06:01.969Z,8.4
2023-01-03T09:07:00.273Z,8.4
2023-01-03T09:08:00.241Z,7.7
2023-01-03T09:09:04.371Z,7.7
2023-01-03T09:10:00.241Z,7.7
2023-01-03T09:11:04.266Z,7.7
2023-01-03T09:12:00.282Z,7.7
2023-01-03T09:13:00.899Z,7.5
2023-01-03T09:14:00.218Z,7.5
2023-01-03T09:15:00.314Z,7.5
2023-01-03T09:16:09.581Z,7.5
2023-01-03T09:17:00.328Z,7.5
2023-01-03T09:18:00.225Z,7.2
2023-01-03T09:19:00.260Z,7.2
2023-01-03T09:20:00.229Z,7.2
2023-01-03T09:21:00.617Z,7.2
2023-01-03T09:22:00.523Z,7.2
2023-01-03T09:23:00.252Z,6.5
2023-01-03T09:24:00.232Z,6.5
2023-01-03T09:25:00.247Z,6.5
2023-01-03T09:26:00.253Z,6.5
2023-01-03T09:27:00.293Z,6.5
2023-01-03T09:28:00.207Z,9.0
2023-01-03T09:29:00.202Z,9.0
2023-01-03T09:30:00.455Z,9.0
2023-01-03T09:31:01.114Z,9.0
2023-01-03T09:32:00.316Z,9.0
2023-01-03T09:33:00.172Z,8.5
2023-01-03T09:34:00.507Z,8.5
2023-01-03T09:35:00.148Z,8.5
2023-01-03T09:36:00.216Z,8.5
2023-01-03T09:37:00.826Z,8.5
2023-01-03T09:38:00.160Z,7.9
2023-01-03T09:39:00.130Z,7.9
2023-01-03T09:40:00.298Z,7.9
2023-01-03T09:41:05.360Z,7.9
2023-01-03T09:42:00.330Z,7.9
2023-01-03T09:43:03.126Z,7.1
2023-01-03T09:44:03.534Z,7.1
2023-01-03T09:45:00.414Z,7.1
2023-01-03T09:46:00.184Z,7.1
2023-01-03T09:47:01.320Z,7.1
2023-01-03T09:48:02.819Z,6.9
2023-01-03T09:49:02.848Z,6.9
2023-01-03T09:50:34.605Z,6.9
2023-01-03T09:51:21.200Z,6.9
2023-01-03T09:52:00.211Z,6.9
2023-01-03T09:53:01.760Z,7.2
2023-01-03T09:54:00.204Z,7.2
2023-01-03T09:55:00.161Z,7.2
2023-01-03T09:56:00.211Z,7.2
2023-01-03T09:57:01.103Z,7.2
2023-01-03T09:58:00.242Z,7.1
2023-01-03T09:59:09.607Z,7.1
2023-01-03T10:00:00.364Z,7.1
2023-01-03T10:01:11.228Z,7.1
2023-01-03T10:02:20.265Z,7.1
2023-01-03T10:03:20.166Z,6.8
2023-01-03T10:04:10.722Z,6.8
2023-01-03T10:05:15.302Z,6.8
2023-01-03T10:06:13.303Z,6.8
2023-01-03T10:07:10.153Z,6.8
2023-01-03T10:08:11.972Z,7.9
2023-01-03T10:09:07.235Z,7.9
2023-01-03T10:10:20.222Z,7.9
2023-01-03T10:11:06.231Z,7.9
2023-01-03T10:12:07.645Z,7.9
2023-01-03T10:14:10.191Z,7.6
2023-01-03T10:15:20.146Z,7.6
2023-01-03T10:16:16.569Z,7.6
2023-01-03T10:17:05.734Z,7.6
2023-01-03T10:18:20.154Z,6.3
2023-01-03T10:19:07.582Z,6.3
2023-01-03T10:20:10.995Z,6.3
2023-01-03T10:21:15.176Z,6.3
2023-01-03T10:22:12.807Z,6.3
2023-01-03T10:23:04.256Z,6.2
2023-01-03T10:24:00.478Z,6.2
2023-01-03T10:25:03.475Z,6.2
2023-01-03T10:26:00.805Z,6.2
2023-01-03T10:27:07.472Z,6.2
2023-01-03T10:28:08.950Z,5.8
2023-01-03T10:29:00.468Z,5.8
2023-01-03T10:30:03.612Z,5.8
2023-01-03T10:31:13.464Z,5.8
2023-01-03T10:32:09.084Z,5.8
2023-01-03T10:33:12.714Z,5.8
2023-01-03T10:34:00.320Z,5.8
2023-01-03T10:35:03.491Z,5.8
2023-01-03T10:36:00.842Z,5.8
2023-01-03T10:37:01.346Z,5.8
2023-01-03T10:38:01.046Z,5.5
2023-01-03T10:39:06.055Z,5.5
2023-01-03T10:40:00.954Z,5.5
2023-01-03T10:41:02.701Z,5.5
2023-01-03T10:42:04.175Z,5.5
2023-01-03T10:43:07.386Z,5.8
2023-01-03T10:44:02.650Z,5.8
2023-01-03T10:45:08.778Z,5.8
2023-01-03T10:46:03.218Z,5.8
2023-01-03T10:47:09.839Z,5.8
2023-01-03T10:48:01.098Z,5.2
2023-01-03T10:49:29.341Z,5.2
2023-01-03T10:50:02.720Z,5.2
2023-01-03T10:51:03.447Z,5.2
2023-01-03T10:52:09.136Z,5.2
2023-01-03T10:53:06.506Z,5.4
2023-01-03T10:54:11.066Z,5.4
2023-01-03T10:55:10.092Z,5.4
2023-01-03T10:56:01.449Z,5.4
2023-01-03T10:57:00.324Z,5.4
2023-01-03T10:58:03.324Z,5.2
2023-01-03T10:59:11.496Z,5.2
2023-01-03T11:00:00.300Z,5.2
2023-01-03T11:01:18.084Z,5.2
2023-01-03T11:02:07.899Z,5.2
2023-01-03T11:03:09.916Z,4.9
2023-01-03T11:04:17.389Z,4.9
2023-01-03T11:05:09.632Z,4.9
2023-01-03T11:06:00.236Z,4.9
2023-01-03T11:07:03.496Z,4.9
2023-01-03T11:08:04.034Z,5.0
2023-01-03T11:09:04.587Z,5.0
2023-01-03T11:10:00.297Z,5.0
2023-01-03T11:11:00.298Z,5.0
2023-01-03T11:12:04.411Z,5.0
2023-01-03T11:13:00.265Z,5.2
2023-01-03T11:14:17.733Z,5.2
2023-01-03T11:15:12.875Z,5.2
2023-01-03T11:16:02.540Z,5.2
2023-01-03T11:17:03.170Z,5.2
2023-01-03T11:18:03.901Z,5.1
2023-01-03T11:19:04.548Z,5.1
2023-01-03T11:20:00.406Z,5.1
2023-01-03T11:21:20.172Z,5.1
2023-01-03T11:22:09.024Z,5.1
2023-01-03T11:23:06.679Z,5.2
2023-01-03T11:24:10.164Z,5.2
2023-01-03T11:25:10.238Z,5.2
2023-01-03T11:26:17.166Z,5.2
2023-01-03T11:27:11.622Z,5.2
2023-01-03T11:28:13.672Z,5.3
2023-01-03T11:29:20.157Z,5.3
2023-01-03T11:30:14.071Z,5.3
2023-01-03T11:31:05.813Z,5.3
2023-01-03T11:32:10.225Z,5.3
2023-01-03T11:33:13.447Z,5.4
2023-01-03T11:34:20.144Z,5.4
2023-01-03T11:35:24.326Z,5.4
2023-01-03T11:36:20.193Z,5.4
2023-01-03T11:37:11.859Z,5.4
2023-01-03T11:38:11.468Z,5.3
2023-01-03T11:39:24.690Z,5.3
2023-01-03T11:40:20.189Z,5.3
2023-01-03T11:41:01.257Z,5.3
2023-01-03T11:42:10.220Z,5.3
2023-01-03T11:43:16.293Z,6.5
2023-01-03T11:44:20.167Z,6.5
2023-01-03T11:45:10.162Z,6.5
2023-01-03T11:46:13.546Z,6.5
2023-01-03T11:47:16.606Z,6.5
2023-01-03T11:48:20.143Z,7.2
2023-01-03T11:49:17.176Z,7.2
2023-01-03T11:50:11.179Z,7.2
2023-01-03T11:51:20.163Z,7.2
2023-01-03T11:52:16.925Z,7.2
2023-01-03T11:53:06.111Z,6.6
2023-01-03T11:54:07.841Z,6.6
2023-01-03T11:55:13.431Z,6.6
2023-01-03T11:56:07.492Z,6.6
2023-01-03T11:57:13.737Z,6.6
2023-01-03T11:58:20.126Z,5.6
2023-01-03T11:59:06.721Z,5.6
2023-01-03T12:00:14.492Z,5.6
2023-01-03T12:01:20.231Z,5.6
2023-01-03T12:02:20.259Z,5.6
2023-01-03T12:03:08.654Z,5.3
2023-01-03T12:04:19.010Z,5.3
2023-01-03T12:05:20.147Z,5.3
2023-01-03T12:06:07.291Z,5.3
2023-01-03T12:08:15.507Z,5.7
2023-01-03T12:09:10.698Z,5.7
2023-01-03T12:10:11.741Z,5.7
2023-01-03T12:11:08.590Z,5.7
2023-01-03T12:12:10.182Z,5.7
2023-01-03T12:13:13.547Z,6.0
2023-01-03T12:14:02.246Z,6.0
2023-01-03T12:15:10.184Z,6.0
2023-01-03T12:16:06.527Z,6.0
2023-01-03T12:17:12.873Z,6.0
2023-01-03T12:18:06.862Z,6.0
2023-01-03T12:19:12.283Z,6.0
2023-01-03T12:20:09.649Z,6.0
2023-01-03T12:21:12.280Z,6.0
2023-01-03T12:22:10.019Z,6.0
2023-01-03T12:23:05.335Z,6.5
2023-01-03T12:24:12.726Z,6.5
2023-01-03T12:25:17.511Z,6.5
2023-01-03T12:26:05.655Z,6.5
2023-01-03T12:27:13.602Z,6.5
2023-01-03T12:28:10.211Z,5.8
2023-01-03T12:29:14.484Z,5.8
2023-01-03T12:30:20.138Z,5.8
2023-01-03T12:31:07.149Z,5.8
2023-01-03T12:32:10.909Z,5.8
2023-01-03T12:33:10.928Z,5.3
2023-01-03T12:34:18.236Z,5.3
2023-01-03T12:35:11.209Z,5.3
2023-01-03T12:36:06.390Z,5.3
2023-01-03T12:37:20.142Z,5.3
2023-01-03T12:38:04.067Z,5.4
2023-01-03T12:39:11.194Z,5.4
2023-01-03T12:40:07.395Z,5.4
2023-01-03T12:41:20.135Z,5.4
2023-01-03T12:42:10.181Z,5.4
2023-01-03T12:43:08.974Z,5.2
2023-01-03T12:44:10.541Z,5.2
2023-01-03T12:45:13.698Z,5.2
2023-01-03T12:46:12.346Z,5.2
2023-01-03T12:47:01.840Z,5.2
2023-01-03T12:48:10.208Z,5.5
2023-01-03T12:49:14.084Z,5.5
2023-01-03T12:50:05.869Z,5.5
2023-01-03T12:51:00.409Z,5.5
2023-01-03T12:52:00.261Z,5.5
2023-01-03T12:53:14.821Z,5.5
2023-01-03T12:54:10.898Z,5.5
2023-01-03T12:55:07.805Z,5.5
2023-01-03T12:56:13.448Z,5.5
2023-01-03T12:57:06.721Z,5.5
2023-01-03T12:58:17.768Z,5.2
2023-01-03T12:59:08.035Z,5.2
2023-01-03T13:00:10.087Z,5.2
2023-01-03T13:01:13.658Z,5.2
2023-01-03T13:02:20.273Z,5.2
2023-01-03T13:03:12.886Z,5.2
2023-01-03T13:04:23.786Z,5.2
2023-01-03T13:05:20.135Z,5.2
2023-01-03T13:06:14.902Z,5.2
2023-01-03T13:07:10.865Z,5.2
2023-01-03T13:08:05.128Z,5.3
2023-01-03T13:09:06.358Z,5.3
2023-01-03T13:10:07.373Z,5.3
2023-01-03T13:11:05.770Z,5.3
2023-01-03T13:12:06.304Z,5.3
2023-01-03T13:13:01.175Z,5.1
2023-01-03T13:14:14.275Z,5.1
2023-01-03T13:15:01.238Z,5.1
2023-01-03T13:16:20.193Z,5.1
2023-01-03T13:17:05.540Z,5.1
2023-01-03T13:18:20.141Z,4.2
2023-01-03T13:19:20.127Z,4.2
2023-01-03T13:20:13.469Z,4.2
2023-01-03T13:21:10.609Z,4.2
2023-01-03T13:22:12.598Z,4.2
2023-01-03T13:23:20.118Z,4.3
2023-01-03T13:24:00.252Z,4.3
2023-01-03T13:25:20.137Z,4.3
2023-01-03T13:26:03.476Z,4.3
2023-01-03T13:27:17.668Z,4.3
2023-01-03T13:28:17.565Z,4.3
2023-01-03T13:29:20.149Z,4.3
2023-01-03T13:30:00.311Z,4.3
2023-01-03T13:31:13.508Z,4.3
2023-01-03T13:32:12.491Z,4.3
2023-01-03T13:33:15.617Z,4.2
2023-01-03T13:34:13.691Z,4.2
2023-01-03T13:35:01.270Z,4.2
2023-01-03T13:36:00.567Z,4.2
2023-01-03T13:37:08.787Z,4.2
2023-01-03T13:38:24.572Z,4.8
2023-01-03T13:39:00.279Z,4.8
2023-01-03T13:40:17.424Z,4.8
2023-01-03T13:41:18.866Z,4.8
2023-01-03T13:42:00.283Z,4.8
2023-01-03T13:43:02.785Z,4.3
2023-01-03T13:44:15.453Z,4.3
2023-01-03T13:45:10.170Z,4.3
2023-01-03T13:46:09.205Z,4.3
2023-01-03T13:47:00.342Z,4.3